Bad Axe, MI

1:36 AM EDT on May 27, 2017 (GMT -0400)
Huron County Memorial

Weather History for KBAX - March, 2013

Change the Weather History Date:

Saturday, March 23, 2013

  Actual Average (KP58) Record (KP58)
Temperature  
Mean Temperature 32 °F -  
Max Temperature 36 °F 39 °F 51 °F (2012)
Min Temperature 28 °F 28 °F 15 °F (2014)
Degree Days  
Heating Degree Days 33    
Moisture  
Dew Point 26 °F    
Average Humidity 80    
Maximum Humidity 88    
Minimum Humidity 71    
Precipitation  
Precipitation 0.00 in - - ()
Sea Level Pressure  
Sea Level Pressure 30.05 in    
Wind  
Wind Speed 6 mph (WNW)    
Max Wind Speed 10 mph    
Max Gust Speed -    
Visibility 10 miles    
Events      
Averages and records for this station are not official NWS values.
T = Trace of Precipitation, MM = Missing Value Source: NWS Daily Summary

Daily Weather History Graph

Daily Weather History Graph

Search for Another Location

Airport or City:

Trip Planner

Search our weather history database for the weather conditions in past years. The results will help you decide how hot, cold, wet, or windy it might be!

Date:

Astronomy

Mar. 23, 2013 Rise Set
Actual Time 7:29 AM EDT 7:48 PM EDT
Civil Twilight 7:00 AM EDT 8:17 PM EDT
Nautical Twilight 6:26 AM EDT 8:50 PM EDT
Astronomical Twilight 5:52 AM EDT 9:25 PM EDT
Moon 4:07 PM EDT (3/23) 5:11 AM EDT (3/23)
Length of Visible Light 13h 16m
Length of Day
12h 19m
Waxing Gibbous, 85% of the Moon is Illuminated
Mar 23
Waxing Gibbous
Mar 27
Full
Apr 3
Last Quarter
Apr 10
New
Apr 18
First Quarter

Hourly Weather History & Observations

Time (EDT) Temp. Windchill Dew Point Humidity Pressure Visibility Wind Dir Wind Speed Gust Speed Precip Events Conditions
12:13 AM 31.1 °F 23.1 °F 23.7 °F 74% 30.00 in 10.0 mi NNW 9.2 mph - N/A   Overcast
12:33 AM 31.1 °F 23.1 °F 23.4 °F 73% 30.00 in 10.0 mi NW 9.2 mph - N/A   Overcast
12:54 AM 31.1 °F 23.7 °F 23.2 °F 72% 30.00 in 10.0 mi NW 8.1 mph - N/A   Overcast
1:13 AM 30.9 °F 23.5 °F 23.5 °F 74% 30.00 in 10.0 mi NW 8.1 mph - N/A   Overcast
1:34 AM 30.9 °F 24.3 °F 23.2 °F 73% 30.00 in 10.0 mi NNW 6.9 mph - N/A   Overcast
1:53 AM 30.7 °F 26.0 °F 23.9 °F 76% 30.00 in 10.0 mi WNW 4.6 mph - N/A   Overcast
2:13 AM 30.7 °F 24.9 °F 23.7 °F 75% 30.00 in 10.0 mi NW 5.8 mph - N/A   Overcast
2:34 AM 30.4 °F 24.5 °F 23.9 °F 77% 30.00 in 10.0 mi WNW 5.8 mph - N/A   Overcast
2:53 AM 30.6 °F 25.8 °F 23.5 °F 75% 30.00 in 10.0 mi WNW 4.6 mph - N/A   Overcast
3:13 AM 30.2 °F 25.4 °F 23.9 °F 77% 30.00 in 10.0 mi WNW 4.6 mph - N/A   Overcast
3:34 AM 29.7 °F 23.7 °F 24.3 °F 80% 30.00 in 10.0 mi NW 5.8 mph - N/A   Overcast
3:53 AM 29.7 °F 24.7 °F 24.4 °F 81% 30.00 in 10.0 mi NW 4.6 mph - N/A   Overcast
4:13 AM 29.3 °F 24.3 °F 24.8 °F 83% 30.01 in 10.0 mi NW 4.6 mph - N/A   Overcast
4:34 AM 29.3 °F 23.2 °F 24.6 °F 83% 30.00 in 10.0 mi WNW 5.8 mph - N/A   Overcast
4:53 AM 29.3 °F 22.3 °F 24.8 °F 83% 30.00 in 10.0 mi WNW 6.9 mph - N/A   Overcast
5:14 AM 29.3 °F 23.2 °F 25.0 °F 84% 30.00 in 10.0 mi WNW 5.8 mph - N/A   Overcast
5:34 AM 29.3 °F 24.3 °F 25.2 °F 85% 30.01 in 10.0 mi WNW 4.6 mph - N/A   Overcast
5:53 AM 29.3 °F 24.3 °F 25.7 °F 86% 30.01 in 10.0 mi NW 4.6 mph - N/A   Overcast
6:14 AM 29.3 °F 25.6 °F 25.7 °F 86% 30.01 in 10.0 mi NW 3.5 mph - N/A   Overcast
6:34 AM 29.3 °F 23.2 °F 25.7 °F 86% 30.02 in 10.0 mi NW 5.8 mph - N/A   Overcast
6:53 AM 29.1 °F 20.6 °F 24.4 °F 83% 30.03 in 10.0 mi NNW 9.2 mph - N/A   Overcast
7:14 AM 28.9 °F 21.1 °F 24.4 °F 83% 30.03 in 10.0 mi NNW 8.1 mph - N/A   Overcast
7:34 AM 28.8 °F 20.2 °F 24.4 °F 84% 30.04 in 10.0 mi NNW 9.2 mph - N/A   Overcast
7:53 AM 28.4 °F 19.1 °F 24.4 °F 85% 30.04 in 10.0 mi NNW 10.4 mph - N/A   Overcast
8:14 AM 28.4 °F 19.1 °F 24.6 °F 86% 30.05 in 10.0 mi NNW 10.4 mph - N/A   Overcast
8:34 AM 28.4 °F 21.2 °F 24.6 °F 86% 30.05 in 10.0 mi NNW 6.9 mph - N/A   Overcast
9:14 AM 28.6 °F 20.7 °F 24.6 °F 85% 30.06 in 10.0 mi NW 8.1 mph - N/A   Overcast
9:34 AM 29.3 °F 20.8 °F 24.8 °F 83% 30.06 in 10.0 mi NW 9.2 mph - N/A   Overcast
9:53 AM 29.1 °F 21.3 °F 24.6 °F 83% 30.06 in 10.0 mi NW 8.1 mph - N/A   Overcast
10:14 AM 29.3 °F 20.8 °F 25.2 °F 85% 30.07 in 10.0 mi NW 9.2 mph - N/A   Overcast
10:33 AM 29.7 °F 21.3 °F 25.5 °F 85% 30.07 in 10.0 mi NW 9.2 mph - N/A   Overcast
10:54 AM 30.2 °F 21.3 °F 25.7 °F 83% 30.07 in 10.0 mi WNW 10.4 mph - N/A   Overcast
11:14 AM 30.2 °F 23.4 °F 25.5 °F 83% 30.08 in 10.0 mi WNW 6.9 mph - N/A   Overcast
11:33 AM 30.2 °F 24.3 °F 25.5 °F 83% 30.08 in 10.0 mi WNW 5.8 mph - N/A   Overcast
11:54 AM 30.2 °F 24.3 °F 25.2 °F 82% 30.08 in 10.0 mi NW 5.8 mph - N/A   Overcast
12:14 PM 30.7 °F 26.0 °F 25.7 °F 82% 30.08 in 10.0 mi NW 4.6 mph - N/A   Overcast
12:33 PM 31.1 °F 24.5 °F 26.1 °F 82% 30.08 in 10.0 mi WNW 6.9 mph - N/A   Overcast
12:54 PM 31.1 °F 25.4 °F 25.7 °F 80% 30.08 in 10.0 mi NW 5.8 mph - N/A   Overcast
1:14 PM 31.6 °F 26.0 °F 25.7 °F 79% 30.09 in 10.0 mi West 5.8 mph - N/A   Overcast
1:33 PM 32.7 °F 27.3 °F 26.4 °F 78% 30.09 in 10.0 mi West 5.8 mph - N/A   Overcast
1:54 PM 33.1 °F 26.1 °F 26.6 °F 77% 30.09 in 10.0 mi NW 8.1 mph - N/A   Overcast
2:14 PM 32.4 °F 27.9 °F 25.5 °F 76% 30.09 in 10.0 mi WNW 4.6 mph - N/A   Overcast
2:33 PM 32.7 °F 24.5 °F 26.8 °F 79% 30.09 in 10.0 mi West 10.4 mph - N/A   Overcast
2:54 PM 32.9 °F 25.3 °F 26.6 °F 78% 30.08 in 10.0 mi West 9.2 mph - N/A   Overcast
3:14 PM 33.1 °F 24.9 °F 26.4 °F 77% 30.08 in 10.0 mi West 10.4 mph - N/A   Overcast
3:33 PM 34.2 °F 28.2 °F 26.8 °F 74% 30.07 in 10.0 mi WNW 6.9 mph - N/A   Overcast
3:54 PM 33.3 °F 28.9 °F 26.4 °F 76% 30.07 in 10.0 mi West 4.6 mph - N/A   Overcast
4:14 PM 34.0 °F 31.0 °F 26.8 °F 75% 30.07 in 10.0 mi WNW 3.5 mph - N/A   Mostly Cloudy
4:33 PM 35.2 °F 30.3 °F 27.7 °F 74% 30.06 in 10.0 mi WNW 5.8 mph - N/A   Mostly Cloudy
4:54 PM 35.2 °F 32.4 °F 27.7 °F 74% 30.06 in 10.0 mi NNW 3.5 mph - N/A   Scattered Clouds
5:14 PM 35.8 °F 30.9 °F 27.9 °F 73% 30.06 in 10.0 mi West 5.8 mph - N/A   Scattered Clouds
5:34 PM 36.0 °F 29.0 °F 27.9 °F 72% 30.05 in 10.0 mi WNW 9.2 mph - N/A   Clear
5:54 PM 36.0 °F 29.6 °F 27.3 °F 71% 30.05 in 10.0 mi WNW 8.1 mph - N/A   Scattered Clouds
6:14 PM 35.8 °F 29.4 °F 27.5 °F 72% 30.06 in 10.0 mi West 8.1 mph - N/A   Scattered Clouds
6:34 PM 34.7 °F 28.8 °F 27.1 °F 74% 30.08 in 10.0 mi WSW 6.9 mph - N/A   Scattered Clouds
6:54 PM 34.3 °F 30.2 °F 26.6 °F 73% 30.07 in 10.0 mi West 4.6 mph - N/A   Overcast
7:14 PM 34.0 °F 28.8 °F 26.8 °F 75% 30.07 in 10.0 mi WSW 5.8 mph - N/A   Overcast
7:34 PM 33.8 °F 30.8 °F 27.0 °F 76% 30.06 in 10.0 mi West 3.5 mph - N/A   Overcast
7:54 PM 33.8 °F - 26.8 °F 75% 30.06 in 10.0 mi Calm Calm - N/A   Overcast
8:14 PM 33.1 °F - 27.1 °F 79% 30.06 in 10.0 mi Calm Calm - N/A   Overcast
8:34 PM 32.4 °F 29.1 °F 27.9 °F 83% 30.06 in 10.0 mi West 3.5 mph - N/A   Overcast
8:54 PM 32.4 °F 29.1 °F 28.4 °F 85% 30.07 in 10.0 mi WSW 3.5 mph - N/A   Overcast
9:14 PM 32.2 °F - 28.2 °F 85% 30.07 in 10.0 mi Calm Calm - N/A   Overcast
9:34 PM 32.0 °F - 27.9 °F 85% 30.08 in 10.0 mi Calm Calm - N/A   Overcast
9:54 PM 32.5 °F - 27.3 °F 81% 30.09 in 10.0 mi Calm Calm - N/A   Overcast
10:14 PM 32.2 °F - 27.5 °F 83% 30.09 in 10.0 mi Calm Calm - N/A   Overcast
10:34 PM 32.2 °F - 27.3 °F 82% 30.08 in 10.0 mi Calm Calm - N/A   Overcast
10:54 PM 32.0 °F - 27.3 °F 83% 30.08 in 10.0 mi Calm Calm - N/A   Overcast
11:14 PM 31.6 °F - 27.0 °F 83% 30.07 in 10.0 mi Calm Calm - N/A   Overcast
11:34 PM 30.2 °F - 26.6 °F 86% 30.07 in 10.0 mi Calm Calm - N/A   Overcast
11:54 PM 29.1 °F - 25.9 °F 88% 30.06 in 10.0 mi Calm Calm - N/A   Overcast